| time (UTC) | temp F | wind direction | speed MPH | gust MPH | rain 1hr in | rain 24hr in | rain mn in | humidity % | barometer mb |
| 20260507184512 | 47 | 236 | 5.0 | 9.0 | 0.00 | 0.81 | 0.81 | 99 | 1004.2 |
| 20260507183011 | 47 | 244 | 4.0 | 8.0 | 0.00 | 0.81 | 0.81 | 100 | 1004.1 |
| 20260507181516 | 46 | 237 | 5.0 | 8.0 | 0.00 | 0.81 | 0.81 | 100 | 1004.3 |
| 20260507180019 | 47 | 242 | 4.0 | 8.0 | 0.00 | 0.81 | 0.81 | 100 | 1004.2 |
| 20260507174523 | 47 | 288 | 3.0 | 8.0 | 0.00 | 0.81 | 0.81 | 100 | 1004.0 |
| 20260507173006 | 46 | 277 | 2.0 | 9.0 | 0.00 | 0.81 | 0.81 | 100 | 1004.0 |
| 20260507171513 | 48 | 275 | 4.0 | 9.0 | 0.00 | 0.81 | 0.81 | 100 | 1004.3 |
| 20260507170017 | 48 | 293 | 4.0 | 10.0 | 0.00 | 0.81 | 0.81 | 100 | 1004.2 |
| 20260507164522 | 46 | 303 | 3.0 | 8.0 | 0.00 | 0.81 | 0.81 | 100 | 1004.3 |
| 20260507163025 | 46 | 317 | 6.0 | 10.0 | 0.01 | 0.81 | 0.81 | 100 | 1004.6 |
| 20260507161509 | 46 | 309 | 7.0 | 10.0 | 0.02 | 0.81 | 0.81 | 100 | 1004.6 |
| 20260507160012 | 45 | 291 | 4.0 | 8.0 | 0.03 | 0.81 | 0.81 | 100 | 1005.0 |
| 20260507154519 | 44 | 263 | 2.0 | 10.0 | 0.08 | 0.81 | 0.81 | 100 | 1005.3 |
| 20260507153028 | 45 | 220 | 4.0 | 8.0 | 0.10 | 0.80 | 0.80 | 100 | 1005.1 |
| 20260507151526 | 45 | 240 | 3.0 | 5.0 | 0.10 | 0.79 | 0.79 | 100 | 1004.4 |
| 20260507150010 | 45 | 221 | 1.0 | 5.0 | 0.08 | 0.77 | 0.77 | 100 | 1004.4 |
| 20260507144507 | 45 | 203 | 3.0 | 6.0 | 0.03 | 0.72 | 0.72 | 100 | 1005.0 |
| 20260507143005 | 46 | 236 | 4.0 | 8.0 | 0.04 | 0.70 | 0.70 | 100 | 1004.8 |
| 20260507141504 | 46 | 148 | 2.0 | 3.0 | 0.07 | 0.69 | 0.69 | 100 | 1004.5 |
| 20260507140011 | 46 | 148 | 1.0 | 5.0 | 0.10 | 0.68 | 0.68 | 100 | 1004.3 |
| 20260507134510 | 46 | 148 | 1.0 | 3.0 | 0.15 | 0.68 | 0.68 | 100 | 1004.4 |
| 20260507133010 | 45 | 124 | 4.0 | 8.0 | 0.18 | 0.65 | 0.65 | 100 | 1004.6 |
| 20260507131504 | 46 | 192 | 3.0 | 6.0 | 0.22 | 0.61 | 0.61 | 100 | 1005.5 |
| 20260507130005 | 46 | 147 | 0.0 | 7.0 | 0.26 | 0.58 | 0.58 | 100 | 1005.0 |
| 20260507124514 | 45 | 157 | 4.0 | 10.0 | 0.27 | 0.52 | 0.52 | 100 | 1005.6 |
| 20260507123021 | 45 | 188 | 7.0 | 12.0 | 0.21 | 0.46 | 0.46 | 100 | 1005.7 |
| 20260507121512 | 45 | 191 | 6.0 | 10.0 | 0.14 | 0.39 | 0.39 | 100 | 1005.5 |
| 20260507120005 | 45 | 172 | 8.0 | 15.0 | 0.06 | 0.31 | 0.31 | 100 | 1006.4 |
| 20260507114507 | 46 | 180 | 10.0 | 18.0 | 0.00 | 0.25 | 0.25 | 100 | 1006.0 |
| 20260507113008 | 47 | 153 | 9.0 | 17.0 | 0.00 | 0.25 | 0.25 | 100 | 1005.5 |
| 20260507111514 | 47 | 161 | 9.0 | 19.0 | 0.00 | 0.25 | 0.25 | 100 | 1005.2 |
| 20260507110017 | 47 | 173 | 10.0 | 23.0 | 0.00 | 0.25 | 0.25 | 100 | 1005.6 |
| 20260507104524 | 47 | 169 | 10.0 | 19.0 | 0.00 | 0.25 | 0.25 | 100 | 1005.3 |
| 20260507103008 | 47 | 194 | 12.0 | 22.0 | 0.00 | 0.25 | 0.25 | 100 | 1005.9 |
| 20260507101511 | 47 | 194 | 11.0 | 22.0 | 0.00 | 0.25 | 0.25 | 100 | 1006.0 |
| 20260507100026 | 48 | 155 | 10.0 | 26.0 | 0.00 | 0.25 | 0.25 | 100 | 1006.0 |
| 20260507094520 | 48 | 155 | 13.0 | 22.0 | 0.00 | 0.25 | 0.25 | 100 | 1005.5 |
| 20260507093025 | 48 | 153 | 8.0 | 24.0 | 0.00 | 0.25 | 0.25 | 100 | 1005.2 |
| 20260507091521 | 48 | 165 | 10.0 | 24.0 | 0.00 | 0.25 | 0.25 | 100 | 1005.6 |
| 20260507090017 | 48 | 153 | 12.0 | 19.0 | 0.00 | 0.25 | 0.25 | 100 | 1005.7 |
| 20260507084515 | 49 | 169 | 14.0 | 34.0 | 0.00 | 0.25 | 0.25 | 100 | 1005.8 |
| 20260507083022 | 49 | 151 | 14.0 | 29.0 | 0.00 | 0.25 | 0.25 | 100 | 1005.6 |
| 20260507081531 | 49 | 185 | 17.0 | 33.0 | 0.00 | 0.25 | 0.25 | 99 | 1005.9 |
| 20260507080009 | 50 | 171 | 13.0 | 31.0 | 0.00 | 0.25 | 0.25 | 99 | 1005.8 |
| 20260507074513 | 50 | 160 | 10.0 | 29.0 | 0.01 | 0.25 | 0.25 | 99 | 1005.9 |
| 20260507073018 | 50 | 178 | 14.0 | 28.0 | 0.02 | 0.25 | 0.25 | 99 | 1006.1 |
| 20260507071523 | 51 | 186 | 17.0 | 36.0 | 0.04 | 0.25 | 0.25 | 99 | 1006.1 |
| 20260507070022 | 52 | 180 | 17.0 | 31.0 | 0.07 | 0.24 | 0.24 | 99 | 1006.1 |
| 20260507064526 | 52 | 159 | 17.0 | 31.0 | 0.07 | 0.23 | 0.23 | 98 | 1006.1 |
| 20260507063014 | 53 | 162 | 17.0 | 34.0 | 0.08 | 0.22 | 0.22 | 98 | 1006.3 |
| 20260507061529 | 54 | 167 | 20.0 | 39.0 | 0.08 | 0.20 | 0.20 | 98 | 1006.1 |
| 20260507060003 | 55 | 154 | 21.0 | 41.0 | 0.10 | 0.17 | 0.17 | 98 | 1006.2 |
| 20260507054507 | 56 | 148 | 18.0 | 31.0 | 0.13 | 0.15 | 0.15 | 98 | 1006.7 |
| 20260507053043 | 55 | 123 | 16.0 | 31.0 | 0.13 | 0.14 | 0.14 | 98 | 1006.9 |
| 20260507051517 | 55 | 172 | 19.0 | 33.0 | 0.11 | 0.11 | 0.11 | 97 | 1007.7 |
| 20260507050030 | 56 | 153 | 13.0 | 32.0 | 0.06 | 0.07 | 0.07 | 96 | 1007.7 |
| 20260507044506 | 56 | 142 | 17.0 | 34.0 | 0.02 | 0.02 | 0.02 | 94 | 1008.1 |
| 20260507043006 | 57 | 148 | 15.0 | 29.0 | 0.00 | 0.00 | 0.00 | 95 | 1008.5 |
| 20260507041513 | 57 | 166 | 14.0 | 26.0 | 0.00 | 0.00 | 0.00 | 94 | 1008.7 |
| 20260507040017 | 57 | 155 | 12.0 | 29.0 | 0.00 | 0.00 | 0.00 | 94 | 1009.0 |
| 20260507034503 | 57 | 130 | 13.0 | 31.0 | 0.00 | 0.00 | 0.00 | 94 | 1009.1 |
| 20260507033009 | 57 | 169 | 11.0 | 26.0 | 0.00 | 0.00 | 0.00 | 93 | 1009.3 |
| 20260507031510 | 57 | 129 | 13.0 | 26.0 | 0.00 | 0.00 | 0.00 | 92 | 1009.7 |
| 20260507030016 | 57 | 117 | 14.0 | 31.0 | 0.00 | 0.00 | 0.00 | 91 | 1010.1 |
| 20260507024520 | 57 | 199 | 13.0 | 30.0 | 0.00 | 0.00 | 0.00 | 90 | 1010.7 |
| 20260507023023 | 58 | 146 | 11.0 | 36.0 | 0.00 | 0.00 | 0.00 | 90 | 1011.1 |
| 20260507021506 | 57 | 150 | 13.0 | 29.0 | 0.00 | 0.00 | 0.00 | 90 | 1011.3 |
| 20260507020011 | 57 | 123 | 13.0 | 29.0 | 0.00 | 0.00 | 0.00 | 90 | 1011.5 |
| 20260507014516 | 57 | 144 | 14.0 | 30.0 | 0.00 | 0.00 | 0.00 | 90 | 1011.8 |
| 20260507013021 | 57 | 142 | 16.0 | 28.0 | 0.00 | 0.00 | 0.00 | 90 | 1012.0 |
| 20260507011529 | 56 | 150 | 16.0 | 38.0 | 0.00 | 0.00 | 0.00 | 91 | 1012.3 |
| 20260507010009 | 55 | 157 | 13.0 | 28.0 | 0.00 | 0.00 | 0.00 | 92 | 1012.6 |
| 20260507004515 | 55 | 169 | 14.0 | 33.0 | 0.00 | 0.00 | 0.00 | 91 | 1013.0 |
| 20260507003016 | 56 | 133 | 9.0 | 22.0 | 0.00 | 0.00 | 0.00 | 91 | 1012.9 |
| 20260507001524 | 56 | 105 | 9.0 | 26.0 | 0.00 | 0.00 | 0.00 | 92 | 1012.4 |
| 20260507000027 | 55 | 165 | 12.0 | 29.0 | 0.00 | 0.00 | 0.00 | 92 | 1013.5 |
| 20260506234508 | 54 | 184 | 12.0 | 26.0 | 0.00 | 0.00 | 0.00 | 93 | 1013.7 |
| 20260506233012 | 55 | 168 | 15.0 | 33.0 | 0.00 | 0.00 | 0.00 | 93 | 1013.7 |
| 20260506231518 | 54 | 143 | 14.0 | 28.0 | 0.00 | 0.00 | 0.00 | 92 | 1013.7 |
| 20260506230028 | 54 | 177 | 13.0 | 30.0 | 0.00 | 0.00 | 0.00 | 92 | 1013.9 |
| 20260506224525 | 54 | 160 | 14.0 | 30.0 | 0.00 | 0.00 | 0.00 | 92 | 1013.9 |
| 20260506223008 | 55 | 165 | 17.0 | 28.0 | 0.00 | 0.00 | 0.00 | 92 | 1013.7 |
| 20260506221515 | 55 | 148 | 14.0 | 33.0 | 0.00 | 0.00 | 0.00 | 91 | 1013.8 |
| 20260506220033 | 55 | 142 | 17.0 | 31.0 | 0.00 | 0.00 | 0.00 | 90 | 1014.0 |
| 20260506214523 | 56 | 175 | 16.0 | 33.0 | 0.00 | 0.00 | 0.00 | 90 | 1013.8 |
| 20260506213026 | 56 | 144 | 12.0 | 27.0 | 0.00 | 0.00 | 0.00 | 90 | 1013.9 |
| 20260506211527 | 56 | 140 | 13.0 | 29.0 | 0.00 | 0.00 | 0.00 | 90 | 1014.0 |
| 20260506210020 | 56 | 161 | 13.0 | 36.0 | 0.00 | 0.00 | 0.00 | 88 | 1014.2 |
| 20260506204504 | 56 | 169 | 14.0 | 34.0 | 0.00 | 0.00 | 0.00 | 89 | 1014.4 |
| 20260506203003 | 57 | 134 | 18.0 | 42.0 | 0.00 | 0.00 | 0.00 | 88 | 1014.2 |
| 20260506201509 | 58 | 160 | 14.0 | 34.0 | 0.00 | 0.00 | 0.00 | 88 | 1014.2 |
| 20260506200028 | 57 | 170 | 16.0 | 32.0 | 0.00 | 0.00 | 0.00 | 86 | 1014.2 |
| 20260506194518 | 58 | 195 | 14.0 | 31.0 | 0.00 | 0.00 | 0.00 | 87 | 1014.2 |
| 20260506193006 | 59 | 134 | 15.0 | 42.0 | 0.00 | 0.00 | 0.00 | 85 | 1013.9 |
| 20260506191508 | 60 | 183 | 19.0 | 35.0 | 0.00 | 0.00 | 0.00 | 84 | 1014.4 |
| 20260506190008 | 60 | 188 | 14.0 | 36.0 | 0.00 | 0.00 | 0.00 | 84 | 1013.9 |